Time;durP1;ratioP1;P1;durP2;ratioP2;P2;SDS_P1;SDS_P2;PMS_P1;PMS_P2;Temp;Humidity;BMP_temperature;BMP_pressure;BME280_temperature;BME280_humidity;BME280_pressure;Samples;Min_cycle;Max_cycle;Signal;HPM_P1;HPM_P2
2022/01/27 00:03:48;;;;;;;;;;;;;;;3.52;81.40;102642.69;5071675;28;19916;-71
2022/01/27 00:05:40;;;;;;;;;;;;;;;3.54;81.28;102640.72;5069505;28;20367;-73
2022/01/27 00:12:58;;;;;;;;;;;;;;;3.48;81.38;102620.69;5074955;28;19920;-74
2022/01/27 00:15:30;;;;;;;;;;;;;;;3.47;81.61;102619.00;5073237;28;19912;-75
2022/01/27 00:18:00;;;;;;;;;;;;;;;3.48;81.50;102604.63;5073548;28;19912;-72
2022/01/27 00:20:25;;;;;;;;;;;;;;;3.49;81.58;102592.09;5073239;28;19912;-71
2022/01/27 00:22:50;;;;;;;;;;;;;;;3.50;81.40;102585.75;5075035;28;19918;-70
2022/01/27 00:25:15;;;;;;;;;;;;;;;3.50;81.19;102591.09;5073060;28;19916;-73
2022/01/27 00:27:41;;;;;;;;;;;;;;;3.55;81.25;102589.72;5074765;28;20383;-70
2022/01/27 00:30:07;;;;;;;;;;;;;;;3.54;81.31;102590.69;5074714;28;19955;-73
2022/01/27 00:32:32;;;;;;;;;;;;;;;3.51;81.33;102598.16;5074328;28;20360;-72
2022/01/27 00:34:58;;;;;;;;;;;;;;;3.53;81.22;102596.19;5074387;28;20003;-73
2022/01/27 00:37:23;;;;;;;;;;;;;;;3.60;81.01;102597.34;5074555;28;19958;-71
2022/01/27 00:39:49;;;;;;;;;;;;;;;3.55;80.95;102603.09;5074699;28;20418;-72
2022/01/27 00:42:14;;;;;;;;;;;;;;;3.57;81.20;102596.78;5074131;28;19939;-71
2022/01/27 00:44:39;;;;;;;;;;;;;;;3.55;81.29;102594.25;5074000;28;19912;-73
2022/01/27 00:47:04;;;;;;;;;;;;;;;3.63;80.80;102591.72;5073980;28;19965;-69
2022/01/27 00:49:30;;;;;;;;;;;;;;;3.52;81.21;102594.50;5073860;28;19913;-73
2022/01/27 00:51:56;;;;;;;;;;;;;;;3.57;81.14;102576.19;5074175;28;19912;-72
2022/01/27 00:54:25;;;;;;;;;;;;;;;3.59;81.00;102574.22;5073824;28;20013;-75
2022/01/27 00:57:05;;;;;;;;;;;;;;;3.64;80.76;102572.00;5073673;28;20011;-69
2022/01/27 00:59:52;;;;;;;;;;;;;;;3.58;81.06;102566.31;5073719;28;19912;-74
2022/01/27 01:02:43;;;;;;;;;;;;;;;3.65;81.05;102562.97;5071054;28;19999;-71
2022/01/27 01:07:45;;;;;;;;;;;;;;;3.68;80.56;102568.06;5073823;28;20363;-74
2022/01/27 01:15:33;;;;;;;;;;;;;;;3.58;81.22;102560.97;5072466;28;20279;-76
2022/01/27 01:20:52;;;;;;;;;;;;;;;3.60;81.80;102542.97;5073306;28;20305;-70
2022/01/27 01:34:29;;;;;;;;;;;;;;;3.73;80.63;102533.69;5050588;28;19916;-72
2022/01/27 01:39:21;;;;;;;;;;;;;;;3.72;80.89;102533.81;5072930;28;19962;-72
2022/01/27 01:41:46;;;;;;;;;;;;;;;3.77;80.68;102522.69;5073614;28;19913;-72
2022/01/27 01:44:12;;;;;;;;;;;;;;;3.66;81.07;102511.13;5071899;28;19912;-70
2022/01/27 01:46:37;;;;;;;;;;;;;;;3.75;80.72;102497.91;5072992;28;20003;-73
2022/01/27 01:49:03;;;;;;;;;;;;;;;3.72;81.10;102504.38;5073079;28;20011;-73
2022/01/27 01:51:29;;;;;;;;;;;;;;;3.84;80.62;102491.69;5072668;28;19919;-72
2022/01/27 01:53:55;;;;;;;;;;;;;;;3.79;80.61;102499.28;5073131;28;20014;-72
2022/01/27 01:56:20;;;;;;;;;;;;;;;3.76;80.65;102504.94;5072378;28;20416;-72
2022/01/27 01:58:45;;;;;;;;;;;;;;;3.73;80.85;102514.09;5071786;28;19912;-72
2022/01/27 02:01:10;;;;;;;;;;;;;;;3.85;80.28;102499.59;5070512;28;19912;-71
2022/01/27 02:03:36;;;;;;;;;;;;;;;3.81;80.66;102510.72;5072786;28;20382;-74
2022/01/27 02:06:01;;;;;;;;;;;;;;;3.71;80.96;102503.53;5072904;28;19927;-72
2022/01/27 02:19:18;;;;;;;;;;;;;;;3.84;80.81;102459.56;5072115;28;19978;-75
2022/01/27 02:21:44;;;;;;;;;;;;;;;3.80;80.90;102452.78;5072917;28;20348;-72
2022/01/27 02:24:09;;;;;;;;;;;;;;;3.84;80.92;102448.84;5072881;28;19912;-76
2022/01/27 02:26:34;;;;;;;;;;;;;;;3.79;80.85;102451.09;5074475;28;20009;-71
2022/01/27 02:28:59;;;;;;;;;;;;;;;3.76;81.18;102468.31;5076950;28;19955;-71
2022/01/27 02:31:24;;;;;;;;;;;;;;;3.78;81.11;102454.78;5076979;28;20350;-68
2022/01/27 02:33:57;;;;;;;;;;;;;;;3.87;80.62;102464.63;5077089;28;19957;-74
2022/01/27 02:36:22;;;;;;;;;;;;;;;3.81;81.49;102459.84;5076173;28;20321;-74
2022/01/27 02:38:47;;;;;;;;;;;;;;;3.89;80.81;102468.00;5077036;28;19919;-70
2022/01/27 02:41:12;;;;;;;;;;;;;;;3.89;80.51;102462.66;5076628;28;19942;-70
2022/01/27 02:43:37;;;;;;;;;;;;;;;3.88;80.86;102456.47;5075107;28;20427;-74
2022/01/27 02:46:09;;;;;;;;;;;;;;;3.96;80.32;102453.06;5076517;28;19965;-72
2022/01/27 02:48:34;;;;;;;;;;;;;;;3.91;80.78;102450.00;5076224;28;19916;-73
2022/01/27 02:50:59;;;;;;;;;;;;;;;3.90;80.55;102448.28;5076415;28;19919;-71
2022/01/27 02:53:24;;;;;;;;;;;;;;;3.88;80.89;102447.56;5076212;28;19920;-70
2022/01/27 02:55:49;;;;;;;;;;;;;;;3.86;81.19;102441.50;5074879;28;19913;-72
2022/01/27 02:58:16;;;;;;;;;;;;;;;3.88;81.40;102431.50;5076659;28;19962;-71
2022/01/27 03:00:41;;;;;;;;;;;;;;;3.87;81.06;102427.16;5073207;28;20344;-76
2022/01/27 03:03:06;;;;;;;;;;;;;;;3.86;81.33;102422.78;5076393;28;19920;-75
2022/01/27 03:05:31;;;;;;;;;;;;;;;3.97;81.03;102416.41;5075975;28;20374;-71
2022/01/27 03:07:56;;;;;;;;;;;;;;;3.96;81.41;102394.16;5076458;28;19912;-71
2022/01/27 03:10:26;;;;;;;;;;;;;;;3.96;81.11;102399.50;5074592;28;19912;-68
2022/01/27 03:12:57;;;;;;;;;;;;;;;3.90;81.47;102395.56;5074749;28;20274;-73
2022/01/27 03:15:22;;;;;;;;;;;;;;;3.98;81.26;102410.91;5075865;28;20009;-73
2022/01/27 03:17:47;;;;;;;;;;;;;;;3.94;81.26;102422.06;5076135;28;19978;-76
2022/01/27 03:20:12;;;;;;;;;;;;;;;3.90;81.75;102416.16;5076000;28;19974;-73
2022/01/27 03:22:37;;;;;;;;;;;;;;;3.96;81.27;102399.50;5075640;28;19919;-76
2022/01/27 03:25:03;;;;;;;;;;;;;;;3.92;81.15;102398.09;5075840;28;19919;-72
2022/01/27 03:27:28;;;;;;;;;;;;;;;3.92;81.59;102390.06;5075458;28;19999;-73
2022/01/27 03:29:54;;;;;;;;;;;;;;;3.90;81.35;102392.03;5075785;28;20290;-73
2022/01/27 03:32:19;;;;;;;;;;;;;;;3.92;81.29;102374.00;5074590;28;19916;-79
2022/01/27 03:34:44;;;;;;;;;;;;;;;3.94;81.51;102374.72;5073938;28;19923;-73
2022/01/27 03:37:09;;;;;;;;;;;;;;;4.00;80.95;102378.63;5074842;28;19967;-74
2022/01/27 03:39:39;;;;;;;;;;;;;;;4.01;81.18;102375.81;5075040;28;19912;-70
2022/01/27 03:42:05;;;;;;;;;;;;;;;4.04;81.31;102375.50;5075486;28;19916;-72
2022/01/27 03:44:30;;;;;;;;;;;;;;;3.90;81.64;102382.16;5074971;28;19913;-71
2022/01/27 03:46:56;;;;;;;;;;;;;;;3.90;81.31;102381.34;5075397;28;19912;-70
2022/01/27 03:49:21;;;;;;;;;;;;;;;3.90;81.39;102378.66;5075280;28;19957;-71
2022/01/27 03:51:46;;;;;;;;;;;;;;;3.86;81.71;102388.78;5075416;28;20011;-69
2022/01/27 03:54:12;;;;;;;;;;;;;;;3.86;82.23;102387.94;5075580;28;19912;-74
2022/01/27 03:56:37;;;;;;;;;;;;;;;3.88;82.10;102384.16;5074925;28;19919;-73
2022/01/27 03:59:03;;;;;;;;;;;;;;;3.90;81.88;102381.34;5074012;28;19999;-70
2022/01/27 04:01:30;;;;;;;;;;;;;;;3.87;82.12;102363.72;5072524;28;19912;-69
2022/01/27 04:03:56;;;;;;;;;;;;;;;4.07;81.37;102363.66;5075197;28;19916;-73
2022/01/27 04:06:31;;;;;;;;;;;;;;;3.96;82.44;102367.38;5075060;28;19912;-71
2022/01/27 04:08:56;;;;;;;;;;;;;;;3.94;82.41;102358.63;5075315;28;20006;-73
2022/01/27 04:11:21;;;;;;;;;;;;;;;4.01;81.76;102354.38;5073666;28;19944;-72
2022/01/27 04:13:46;;;;;;;;;;;;;;;3.98;81.80;102349.31;5074718;28;19919;-70
2022/01/27 04:16:12;;;;;;;;;;;;;;;4.12;81.85;102337.28;5074864;28;19912;-70
2022/01/27 04:18:37;;;;;;;;;;;;;;;4.06;82.15;102336.06;5074609;28;19913;-70
2022/01/27 04:21:02;;;;;;;;;;;;;;;4.00;82.63;102327.72;5074843;28;19913;-70
2022/01/27 04:23:27;;;;;;;;;;;;;;;4.08;82.11;102336.75;5074203;28;19999;-72
2022/01/27 04:25:52;;;;;;;;;;;;;;;4.01;82.53;102338.28;5073433;28;20019;-72
2022/01/27 04:28:31;;;;;;;;;;;;;;;4.01;82.31;102337.47;5073331;28;19935;-70
2022/01/27 04:30:58;;;;;;;;;;;;;;;4.08;82.45;102334.06;5074716;28;19912;-73
2022/01/27 04:33:26;;;;;;;;;;;;;;;3.98;82.50;102341.28;5073231;28;19913;-73
2022/01/27 04:35:54;;;;;;;;;;;;;;;4.03;82.49;102336.34;5073103;28;19955;-74
2022/01/27 04:38:24;;;;;;;;;;;;;;;4.02;82.61;102340.00;5074685;28;20004;-69
2022/01/27 04:45:59;;;;;;;;;;;;;;;3.94;83.11;102310.44;5074017;28;20491;-71
2022/01/27 04:48:26;;;;;;;;;;;;;;;4.02;82.63;102313.22;5074192;28;19912;-72
2022/01/27 04:50:52;;;;;;;;;;;;;;;4.00;82.85;102317.00;5074044;28;20386;-72
2022/01/27 04:53:24;;;;;;;;;;;;;;;3.97;82.72;102315.50;5074138;28;19913;-72
2022/01/27 04:55:49;;;;;;;;;;;;;;;3.96;83.02;102316.47;5073764;28;19916;-74
2022/01/27 04:58:19;;;;;;;;;;;;;;;4.05;82.30;102317.44;5074011;28;19920;-73
2022/01/27 05:00:45;;;;;;;;;;;;;;;4.02;82.96;102305.19;5071297;28;20411;-71
2022/01/27 05:03:23;;;;;;;;;;;;;;;4.03;82.49;102293.47;5073596;28;19916;-71
2022/01/27 05:05:48;;;;;;;;;;;;;;;3.93;83.22;102286.47;5073343;28;19916;-70
2022/01/27 05:08:18;;;;;;;;;;;;;;;3.90;83.33;102288.44;5072543;28;19919;-73
2022/01/27 05:10:53;;;;;;;;;;;;;;;3.93;83.36;102281.94;5073584;28;19917;-72
2022/01/27 05:13:19;;;;;;;;;;;;;;;3.97;82.72;102295.88;5073748;28;19916;-73
2022/01/27 05:15:45;;;;;;;;;;;;;;;4.00;82.94;102293.78;5073387;28;20339;-72
2022/01/27 05:18:10;;;;;;;;;;;;;;;4.00;82.83;102277.69;5073670;28;19947;-71
2022/01/27 05:20:36;;;;;;;;;;;;;;;3.94;83.10;102272.94;5073402;28;19991;-73
2022/01/27 05:23:01;;;;;;;;;;;;;;;4.01;82.90;102279.38;5073264;28;19938;-73
2022/01/27 05:25:26;;;;;;;;;;;;;;;3.96;82.98;102270.94;5073241;28;19912;-72
2022/01/27 05:27:51;;;;;;;;;;;;;;;3.88;83.66;102271.69;5073259;28;19955;-72
2022/01/27 05:30:16;;;;;;;;;;;;;;;4.07;83.17;102283.31;5073489;28;19912;-73
2022/01/27 05:32:42;;;;;;;;;;;;;;;3.94;83.27;102258.69;5073488;28;19919;-72
2022/01/27 05:35:07;;;;;;;;;;;;;;;4.09;83.21;102249.16;5073044;28;19919;-75
2022/01/27 05:37:32;;;;;;;;;;;;;;;3.97;83.57;102243.19;5072736;28;20362;-68
2022/01/27 05:39:57;;;;;;;;;;;;;;;4.03;83.36;102249.75;5073325;28;19913;-74
2022/01/27 05:42:23;;;;;;;;;;;;;;;4.08;83.15;102251.00;5073318;28;19912;-71
2022/01/27 05:44:48;;;;;;;;;;;;;;;4.00;83.63;102256.28;5071709;28;19939;-69
2022/01/27 05:47:14;;;;;;;;;;;;;;;4.03;83.51;102255.97;5073271;28;19916;-72
2022/01/27 05:49:39;;;;;;;;;;;;;;;4.19;82.98;102254.50;5072850;28;19916;-74
2022/01/27 05:52:05;;;;;;;;;;;;;;;4.06;83.43;102254.81;5073200;28;20414;-72
2022/01/27 05:54:31;;;;;;;;;;;;;;;4.05;83.40;102251.31;5071643;28;19913;-71
2022/01/27 05:56:56;;;;;;;;;;;;;;;4.06;83.65;102242.28;5073056;28;19912;-74
2022/01/27 05:59:22;;;;;;;;;;;;;;;4.15;83.69;102250.41;5073017;28;20303;-69
2022/01/27 06:01:48;;;;;;;;;;;;;;;4.12;83.74;102246.19;5069910;28;19916;-74
2022/01/27 06:04:13;;;;;;;;;;;;;;;4.23;83.20;102250.53;5072989;28;19916;-72
2022/01/27 06:06:38;;;;;;;;;;;;;;;4.19;83.65;102249.13;5072753;28;19916;-73
2022/01/27 06:09:03;;;;;;;;;;;;;;;4.23;83.15;102239.81;5072928;28;19919;-71
2022/01/27 06:11:28;;;;;;;;;;;;;;;4.38;82.73;102243.69;5072949;28;20274;-72
2022/01/27 06:13:54;;;;;;;;;;;;;;;4.25;83.61;102225.25;5072394;28;19913;-71
2022/01/27 06:16:19;;;;;;;;;;;;;;;4.21;83.67;102237.28;5072829;28;20015;-74
2022/01/27 06:18:44;;;;;;;;;;;;;;;4.36;83.17;102239.44;5072673;28;19916;-75
2022/01/27 06:21:10;;;;;;;;;;;;;;;4.35;83.68;102235.06;5072852;28;19952;-69
2022/01/27 06:23:35;;;;;;;;;;;;;;;4.28;84.19;102237.53;5072622;28;19913;-73
2022/01/27 06:26:01;;;;;;;;;;;;;;;4.31;84.03;102233.72;5072786;28;20248;-69
2022/01/27 06:28:26;;;;;;;;;;;;;;;4.33;83.50;102232.53;5072313;28;19912;-71
2022/01/27 06:30:52;;;;;;;;;;;;;;;4.48;83.91;102227.53;5072489;28;20352;-69
2022/01/27 06:33:17;;;;;;;;;;;;;;;4.33;84.88;102227.19;5072740;28;19997;-72
2022/01/27 06:35:42;;;;;;;;;;;;;;;4.34;84.98;102220.84;5072381;28;19959;-71
2022/01/27 06:38:08;;;;;;;;;;;;;;;4.36;84.69;102216.19;5073012;28;20030;-70
2022/01/27 06:40:33;;;;;;;;;;;;;;;4.49;84.47;102220.34;5071362;28;19912;-73
2022/01/27 06:42:58;;;;;;;;;;;;;;;4.30;84.86;102216.75;5071491;28;19912;-73
2022/01/27 06:45:23;;;;;;;;;;;;;;;4.36;85.35;102218.00;5072602;28;19912;-71
2022/01/27 06:47:49;;;;;;;;;;;;;;;4.39;84.99;102205.16;5072222;28;19963;-70
2022/01/27 06:50:14;;;;;;;;;;;;;;;4.38;84.80;102206.16;5072535;28;19912;-73
2022/01/27 06:52:41;;;;;;;;;;;;;;;4.43;84.95;102185.09;5072271;28;19959;-72
2022/01/27 06:55:06;;;;;;;;;;;;;;;4.48;85.25;102194.53;5072466;28;19919;-71
2022/01/27 06:57:33;;;;;;;;;;;;;;;4.49;85.06;102207.78;5072449;28;19912;-72
2022/01/27 06:59:58;;;;;;;;;;;;;;;4.47;85.43;102214.28;5072162;28;20366;-72
2022/01/27 07:02:24;;;;;;;;;;;;;;;4.40;85.43;102203.31;5069722;28;19923;-70
2022/01/27 07:04:49;;;;;;;;;;;;;;;4.55;85.60;102199.13;5072087;28;19916;-73
2022/01/27 07:07:14;;;;;;;;;;;;;;;4.50;85.36;102200.56;5072381;28;19912;-73
2022/01/27 07:09:40;;;;;;;;;;;;;;;4.58;85.61;102192.63;5071870;28;19920;-74
2022/01/27 07:12:05;;;;;;;;;;;;;;;4.48;85.91;102194.53;5072017;28;19912;-71
2022/01/27 07:14:33;;;;;;;;;;;;;;;4.52;85.59;102196.75;5075676;28;19916;-72
2022/01/27 07:16:58;;;;;;;;;;;;;;;4.58;85.45;102200.66;5074356;28;19961;-71
2022/01/27 07:19:23;;;;;;;;;;;;;;;4.58;85.18;102206.03;5075892;28;20318;-73
2022/01/27 07:21:48;;;;;;;;;;;;;;;4.59;85.51;102207.72;5074276;28;19916;-72
2022/01/27 07:24:13;;;;;;;;;;;;;;;4.52;85.63;102202.09;5075786;28;20368;-70
2022/01/27 07:26:39;;;;;;;;;;;;;;;4.57;85.14;102213.22;5075534;28;20020;-73
2022/01/27 07:29:06;;;;;;;;;;;;;;;4.62;85.46;102218.16;5075727;28;20356;-70
2022/01/27 07:31:31;;;;;;;;;;;;;;;4.68;85.59;102214.84;5074379;28;19916;-72
2022/01/27 07:33:58;;;;;;;;;;;;;;;4.62;85.48;102212.78;5075540;28;19912;-74
2022/01/27 07:36:23;;;;;;;;;;;;;;;4.61;85.07;102211.91;5075842;28;19951;-70
2022/01/27 07:38:49;;;;;;;;;;;;;;;4.72;85.30;102220.75;5075529;28;19947;-74
2022/01/27 07:41:14;;;;;;;;;;;;;;;4.59;85.75;102221.97;5075586;28;19913;-73
2022/01/27 07:43:40;;;;;;;;;;;;;;;4.69;85.51;102215.69;5075609;28;20256;-69
2022/01/27 07:46:06;;;;;;;;;;;;;;;4.76;85.57;102209.56;5075245;28;19965;-70
2022/01/27 07:48:31;;;;;;;;;;;;;;;4.74;85.02;102206.19;5075194;28;20386;-73
2022/01/27 07:50:56;;;;;;;;;;;;;;;4.67;85.75;102215.00;5075091;28;19916;-70
2022/01/27 07:53:22;;;;;;;;;;;;;;;4.73;85.28;102212.53;5075231;28;19966;-71
2022/01/27 07:55:47;;;;;;;;;;;;;;;4.83;85.88;102214.31;5074960;28;19916;-72
2022/01/27 07:58:13;;;;;;;;;;;;;;;4.83;85.57;102216.97;5075226;28;20236;-69
2022/01/27 08:00:39;;;;;;;;;;;;;;;4.85;86.03;102220.38;5072452;28;19927;-68
2022/01/27 08:03:04;;;;;;;;;;;;;;;4.83;86.54;102227.72;5075025;28;19917;-72
2022/01/27 08:05:29;;;;;;;;;;;;;;;4.85;86.59;102223.88;5074620;28;19959;-78
2022/01/27 08:07:54;;;;;;;;;;;;;;;4.81;87.71;102227.03;5074782;28;19912;-71
2022/01/27 08:10:20;;;;;;;;;;;;;;;4.70;87.67;102226.25;5073685;28;19912;-74
2022/01/27 08:12:45;;;;;;;;;;;;;;;4.67;88.45;102229.25;5074833;28;19965;-71
2022/01/27 08:15:15;;;;;;;;;;;;;;;4.72;88.11;102223.41;5074687;28;19919;-73
2022/01/27 08:17:40;;;;;;;;;;;;;;;4.61;88.56;102219.13;5073336;28;20328;-74
2022/01/27 08:20:06;;;;;;;;;;;;;;;4.72;88.74;102221.56;5073411;28;19956;-73
2022/01/27 08:22:32;;;;;;;;;;;;;;;4.61;88.75;102221.81;5074800;28;19913;-72
2022/01/27 08:24:57;;;;;;;;;;;;;;;4.60;89.25;102214.75;5073954;28;20417;-70
2022/01/27 08:27:27;;;;;;;;;;;;;;;4.66;89.47;102224.03;5074506;28;19920;-72
2022/01/27 08:29:57;;;;;;;;;;;;;;;4.71;89.74;102224.41;5074103;28;19919;-68
2022/01/27 08:32:32;;;;;;;;;;;;;;;4.60;89.46;102209.38;5074446;28;19912;-73
2022/01/27 08:34:57;;;;;;;;;;;;;;;4.60;89.50;102212.06;5074203;28;19960;-70
2022/01/27 08:37:22;;;;;;;;;;;;;;;4.61;90.49;102208.41;5074331;28;19948;-74
2022/01/27 08:39:48;;;;;;;;;;;;;;;4.62;90.34;102212.78;5073797;28;20417;-74
2022/01/27 08:42:14;;;;;;;;;;;;;;;4.72;89.90;102215.38;5074343;28;19913;-75
2022/01/27 08:44:39;;;;;;;;;;;;;;;4.54;90.59;102210.00;5074276;28;19950;-72
2022/01/27 08:47:05;;;;;;;;;;;;;;;4.74;90.59;102214.25;5073966;28;19947;-71
2022/01/27 08:49:30;;;;;;;;;;;;;;;4.70;90.72;102218.22;5073982;28;20070;-70
2022/01/27 08:51:56;;;;;;;;;;;;;;;4.57;90.76;102215.06;5073975;28;20355;-71
2022/01/27 08:54:21;;;;;;;;;;;;;;;4.68;90.76;102208.63;5072576;28;19919;-72
2022/01/27 08:56:47;;;;;;;;;;;;;;;4.67;90.84;102209.63;5073404;28;20015;-72
2022/01/27 08:59:12;;;;;;;;;;;;;;;4.74;91.19;102211.56;5073761;28;19913;-74
2022/01/27 09:01:38;;;;;;;;;;;;;;;4.65;91.40;102206.25;5071357;28;20003;-71
2022/01/27 09:04:04;;;;;;;;;;;;;;;4.72;91.09;102208.16;5073624;28;19916;-73
2022/01/27 09:06:29;;;;;;;;;;;;;;;4.71;91.34;102216.38;5073759;28;19916;-71
2022/01/27 09:08:55;;;;;;;;;;;;;;;4.82;91.56;102204.59;5073445;28;19912;-77
2022/01/27 09:11:20;;;;;;;;;;;;;;;4.81;91.76;102208.25;5073637;28;20370;-73
2022/01/27 09:13:45;;;;;;;;;;;;;;;4.87;92.05;102199.59;5073386;28;19912;-71
2022/01/27 09:16:11;;;;;;;;;;;;;;;4.79;92.47;102206.56;5073435;28;19913;-70
2022/01/27 09:18:36;;;;;;;;;;;;;;;4.85;92.26;102205.13;5073561;28;20237;-73
2022/01/27 09:21:06;;;;;;;;;;;;;;;4.87;92.67;102199.59;5073267;28;20536;-75
2022/01/27 09:23:33;;;;;;;;;;;;;;;4.86;91.91;102201.44;5073544;28;19966;-76
2022/01/27 09:26:03;;;;;;;;;;;;;;;4.92;92.54;102199.97;5071890;28;19956;-72
2022/01/27 09:28:28;;;;;;;;;;;;;;;4.94;92.49;102195.31;5073552;28;20391;-72
2022/01/27 09:30:54;;;;;;;;;;;;;;;5.07;92.20;102201.13;5073299;28;19912;-75
2022/01/27 09:33:19;;;;;;;;;;;;;;;5.00;92.80;102205.41;5072051;28;19920;-73
2022/01/27 09:35:44;;;;;;;;;;;;;;;5.08;92.40;102208.16;5072333;28;19920;-74
2022/01/27 09:38:10;;;;;;;;;;;;;;;5.12;92.93;102200.66;5073091;28;20279;-74
2022/01/27 09:40:35;;;;;;;;;;;;;;;5.13;93.16;102200.50;5072966;28;20318;-72
2022/01/27 09:43:03;;;;;;;;;;;;;;;5.09;93.20;102200.97;5072614;28;19912;-74
2022/01/27 09:45:29;;;;;;;;;;;;;;;5.10;92.81;102205.31;5073206;28;19912;-75
2022/01/27 09:47:57;;;;;;;;;;;;;;;5.20;93.42;102203.38;5072685;28;19966;-72
2022/01/27 09:50:26;;;;;;;;;;;;;;;5.15;93.05;102203.84;5073086;28;19919;-70
2022/01/27 09:52:51;;;;;;;;;;;;;;;5.09;93.73;102212.53;5072857;28;20045;-75
2022/01/27 09:55:17;;;;;;;;;;;;;;;5.14;93.65;102210.22;5072998;28;19950;-73
2022/01/27 09:57:42;;;;;;;;;;;;;;;5.29;93.53;102217.72;5072963;28;19912;-73
2022/01/27 10:00:08;;;;;;;;;;;;;;;5.15;93.42;102222.66;5072805;28;20370;-70
2022/01/27 10:02:33;;;;;;;;;;;;;;;5.27;93.81;102209.00;5070070;28;19923;-74
2022/01/27 10:04:59;;;;;;;;;;;;;;;5.23;93.79;102221.03;5072608;28;19917;-73
2022/01/27 10:07:27;;;;;;;;;;;;;;;5.24;93.74;102217.31;5072827;28;20532;-75
2022/01/27 10:09:58;;;;;;;;;;;;;;;5.27;93.87;102222.41;5072863;28;19958;-70
2022/01/27 10:12:29;;;;;;;;;;;;;;;5.27;94.24;102222.41;5071642;28;19952;-71
2022/01/27 10:14:58;;;;;;;;;;;;;;;5.25;93.74;102219.84;5072684;28;19912;-73
2022/01/27 10:17:24;;;;;;;;;;;;;;;5.29;94.43;102215.03;5073058;28;19912;-75
2022/01/27 10:19:52;;;;;;;;;;;;;;;5.26;94.11;102216.19;5071667;28;19916;-74
2022/01/27 10:22:18;;;;;;;;;;;;;;;5.25;93.93;102221.69;5072870;28;20036;-74
2022/01/27 10:24:44;;;;;;;;;;;;;;;5.33;94.01;102213.72;5072799;28;20360;-70
2022/01/27 10:27:18;;;;;;;;;;;;;;;5.30;94.64;102219.41;5072219;28;19916;-71
2022/01/27 10:32:37;;;;;;;;;;;;;;;5.36;94.69;102210.72;5072754;28;19913;-73
2022/01/27 10:35:04;;;;;;;;;;;;;;;5.40;94.73;102214.75;5072460;28;19912;-74
2022/01/27 10:37:49;;;;;;;;;;;;;;;5.37;94.53;102211.56;5072261;28;20437;-73
2022/01/27 10:40:19;;;;;;;;;;;;;;;5.57;94.65;102205.00;5072517;28;19919;-72
2022/01/27 10:42:45;;;;;;;;;;;;;;;5.52;94.61;102209.16;5072924;28;20023;-72
2022/01/27 10:45:14;;;;;;;;;;;;;;;5.40;95.03;102212.09;5071193;28;19952;-73
2022/01/27 10:47:44;;;;;;;;;;;;;;;5.41;94.77;102212.94;5074574;28;20270;-73
2022/01/27 10:50:11;;;;;;;;;;;;;;;5.42;94.86;102210.09;5076275;28;19916;-71
2022/01/27 10:55:06;;;;;;;;;;;;;;;5.51;95.13;102208.31;5076046;28;19995;-73
2022/01/27 10:57:31;;;;;;;;;;;;;;;5.55;94.75;102211.50;5076233;28;20371;-72
2022/01/27 11:00:08;;;;;;;;;;;;;;;5.67;95.63;102211.06;5074665;28;19912;-76
2022/01/27 11:02:46;;;;;;;;;;;;;;;5.53;95.31;102210.84;5073585;28;19966;-71
2022/01/27 11:05:18;;;;;;;;;;;;;;;5.60;95.63;102211.88;5075890;28;19919;-71
2022/01/27 11:07:44;;;;;;;;;;;;;;;5.66;95.37;102208.56;5076153;28;19913;-74
2022/01/27 11:10:10;;;;;;;;;;;;;;;5.55;95.71;102203.47;5075618;28;19916;-71
2022/01/27 11:12:35;;;;;;;;;;;;;;;5.61;95.16;102202.81;5074766;28;20378;-75
2022/01/27 11:15:01;;;;;;;;;;;;;;;5.66;95.83;102205.88;5075732;28;19912;-73
2022/01/27 11:17:30;;;;;;;;;;;;;;;5.72;95.36;102199.84;5075952;28;19912;-71
2022/01/27 11:20:49;;;;;;;;;;;;;;;5.75;95.41;102204.06;5075722;28;19912;-73
2022/01/27 11:23:21;;;;;;;;;;;;;;;5.70;95.51;102201.88;5075330;28;19935;-74
2022/01/27 11:25:51;;;;;;;;;;;;;;;5.75;96.25;102196.88;5075441;28;19917;-71
2022/01/27 11:28:17;;;;;;;;;;;;;;;5.89;96.15;102186.50;5075865;28;19916;-76
2022/01/27 11:30:43;;;;;;;;;;;;;;;5.91;95.54;102174.59;5074482;28;20282;-73
2022/01/27 11:33:09;;;;;;;;;;;;;;;5.86;96.36;102169.72;5075545;28;20278;-74
2022/01/27 11:35:35;;;;;;;;;;;;;;;5.92;95.90;102175.44;5075635;28;19912;-69
2022/01/27 11:38:04;;;;;;;;;;;;;;;5.96;96.50;102171.44;5075710;28;20007;-74
2022/01/27 11:40:46;;;;;;;;;;;;;;;6.00;96.25;102170.16;5075608;28;19982;-76
2022/01/27 11:43:13;;;;;;;;;;;;;;;6.09;96.61;102169.16;5075260;28;19919;-74
2022/01/27 11:45:45;;;;;;;;;;;;;;;5.99;96.16;102163.94;5075540;28;19919;-71
2022/01/27 11:48:29;;;;;;;;;;;;;;;6.02;96.49;102160.06;5075167;28;20427;-72
2022/01/27 11:51:14;;;;;;;;;;;;;;;6.03;96.26;102159.91;5075225;28;19913;-71
2022/01/27 11:53:43;;;;;;;;;;;;;;;6.17;96.75;102163.81;5074022;28;20053;-72
2022/01/27 11:56:15;;;;;;;;;;;;;;;6.21;96.21;102150.91;5074983;28;19917;-71
2022/01/27 11:58:43;;;;;;;;;;;;;;;6.32;96.17;102163.19;5074414;28;19912;-71
2022/01/27 12:01:11;;;;;;;;;;;;;;;6.23;96.56;102167.69;5072438;28;19920;-74
2022/01/27 12:03:38;;;;;;;;;;;;;;;6.25;96.75;102164.84;5075323;28;19916;-72
2022/01/27 12:06:16;;;;;;;;;;;;;;;6.28;96.60;102156.44;5074743;28;19912;-71
2022/01/27 12:08:41;;;;;;;;;;;;;;;6.29;96.93;102155.44;5074708;28;19912;-73
2022/01/27 12:11:10;;;;;;;;;;;;;;;6.26;96.72;102153.91;5074685;28;19935;-76
2022/01/27 12:16:56;;;;;;;;;;;;;;;6.35;96.90;102152.94;5074642;28;19989;-72
2022/01/27 12:19:02;;;;;;;;;;;;;;;6.36;97.29;102160.00;5074019;28;20190;-71
2022/01/27 12:21:50;;;;;;;;;;;;;;;6.36;96.68;102156.47;5074796;28;19919;-73
2022/01/27 12:24:19;;;;;;;;;;;;;;;6.54;97.12;102146.41;5067477;28;19918;-72
2022/01/27 12:26:51;;;;;;;;;;;;;;;6.34;96.72;102145.03;5074720;28;20390;-74
2022/01/27 12:29:36;;;;;;;;;;;;;;;6.47;97.22;102156.16;5074486;28;19912;-71
2022/01/27 12:32:03;;;;;;;;;;;;;;;6.46;96.83;102143.72;5074387;28;20008;-73
2022/01/27 12:34:29;;;;;;;;;;;;;;;6.52;96.83;102148.44;5074544;28;20248;-70
2022/01/27 12:37:14;;;;;;;;;;;;;;;6.56;97.67;102138.19;5074175;28;19966;-71
2022/01/27 12:40:03;;;;;;;;;;;;;;;6.62;97.21;102144.75;5074082;28;19974;-75
2022/01/27 12:42:33;;;;;;;;;;;;;;;6.62;97.07;102134.00;5071156;28;19912;-74
2022/01/27 12:45:01;;;;;;;;;;;;;;;6.67;97.34;102134.31;5072799;28;19912;-71
2022/01/27 12:47:27;;;;;;;;;;;;;;;6.65;97.55;102125.59;5074260;28;19912;-72
2022/01/27 12:50:15;;;;;;;;;;;;;;;6.67;97.17;102131.63;5073939;28;20437;-73
2022/01/27 12:52:43;;;;;;;;;;;;;;;6.75;97.11;102126.25;5074295;28;19920;-72
2022/01/27 12:55:28;;;;;;;;;;;;;;;6.73;96.94;102120.19;5074002;28;20359;-72
2022/01/27 12:58:13;;;;;;;;;;;;;;;6.71;97.33;102130.28;5073420;28;19980;-74
2022/01/27 13:00:40;;;;;;;;;;;;;;;6.78;97.69;102125.94;5071553;28;19995;-75
2022/01/27 13:03:05;;;;;;;;;;;;;;;6.82;97.84;102126.41;5073738;28;19917;-72
2022/01/27 13:05:41;;;;;;;;;;;;;;;6.82;97.68;102121.88;5073959;28;19919;-72
2022/01/27 13:08:10;;;;;;;;;;;;;;;6.88;97.54;102115.84;5072364;28;20323;-72
2022/01/27 13:10:37;;;;;;;;;;;;;;;6.82;97.15;102113.78;5073754;28;20015;-73
2022/01/27 13:13:13;;;;;;;;;;;;;;;6.88;97.23;102113.16;5073530;28;19990;-71
2022/01/27 13:15:38;;;;;;;;;;;;;;;6.85;97.29;102120.69;5072283;28;20260;-76
2022/01/27 13:18:12;;;;;;;;;;;;;;;6.88;97.69;102120.34;5073434;28;19939;-71
2022/01/27 13:20:42;;;;;;;;;;;;;;;7.07;97.27;102124.56;5073617;28;19912;-71
2022/01/27 13:23:20;;;;;;;;;;;;;;;7.00;97.37;102118.16;5073418;28;19912;-74
2022/01/27 13:25:50;;;;;;;;;;;;;;;7.00;96.62;102113.63;5072325;28;20287;-73
2022/01/27 13:28:20;;;;;;;;;;;;;;;6.99;96.61;102121.84;5073296;28;19966;-71
2022/01/27 13:30:46;;;;;;;;;;;;;;;7.11;96.56;102117.84;5073460;28;20348;-70
2022/01/27 13:33:15;;;;;;;;;;;;;;;7.12;97.37;102119.50;5073191;28;19919;-72
2022/01/27 13:35:40;;;;;;;;;;;;;;;7.16;97.15;102115.44;5073327;28;19912;-72
2022/01/27 13:38:08;;;;;;;;;;;;;;;7.14;97.28;102125.56;5073185;28;20007;-72
2022/01/27 13:41:34;;;;;;;;;;;;;;;7.13;96.67;102123.88;5073336;28;20019;-72
2022/01/27 13:43:38;;;;;;;;;;;;;;;7.17;96.97;102124.34;5072527;28;20260;-75
2022/01/27 13:46:03;;;;;;;;;;;;;;;7.24;96.98;102122.66;5071734;28;20279;-72